Time;durP1;ratioP1;P1;durP2;ratioP2;P2;SDS_P1;SDS_P2;PMS_P1;PMS_P2;Temp;Humidity;BMP_temperature;BMP_pressure;BME280_temperature;BME280_humidity;BME280_pressure;Samples;Min_cycle;Max_cycle;Signal;HPM_P1;HPM_P2
2022/01/11 00:01:25;;;;;;;3.78;3.65;;;;;;;-0.83;100.00;102648.16;4426693;32;20083;-72
2022/01/11 00:03:52;;;;;;;2.40;2.30;;;;;;;-0.81;100.00;102643.06;4421548;32;20581;-73
2022/01/11 00:06:31;;;;;;;2.30;2.20;;;;;;;-0.86;100.00;102644.66;4426266;32;20493;-73
2022/01/11 00:09:01;;;;;;;2.22;2.12;;;;;;;-1.53;100.00;102550.97;4434009;32;20076;-72
2022/01/11 00:11:27;;;;;;;4.97;4.78;;;;;;;-0.89;100.00;102655.75;4415147;32;20083;-71
2022/01/11 00:13:52;;;;;;;2.42;2.33;;;;;;;-0.92;100.00;102658.25;4430795;32;20538;-72
2022/01/11 00:16:18;;;;;;;2.22;2.12;;;;;;;-0.96;100.00;102656.44;4413030;32;20074;-75
2022/01/11 00:18:43;;;;;;;3.10;2.92;;;;;;;-0.95;100.00;102660.72;4422405;32;20558;-72
2022/01/11 00:21:08;;;;;;;2.30;2.20;;;;;;;-1.06;100.00;102649.28;4420067;32;20053;-73
2022/01/11 00:25:59;;;;;;;2.20;2.10;;;;;;;-1.43;100.00;102594.16;4438365;32;20750;-71
2022/01/11 00:28:25;;;;;;;3.65;3.53;;;;;;;-1.10;100.00;102656.03;4420051;32;20068;-72
2022/01/11 00:30:51;;;;;;;2.40;2.30;;;;;;;-1.11;100.00;102659.44;4427277;32;20090;-72
2022/01/11 00:33:21;;;;;;;3.03;2.83;;;;;;;-1.13;100.00;102655.94;4428062;32;20068;-73
2022/01/11 00:35:58;;;;;;;3.47;3.28;;;;;;;-1.12;100.00;102657.72;4426953;32;20064;-73
2022/01/11 00:38:24;;;;;;;3.10;3.00;;;;;;;-2.38;100.00;102431.94;4427243;32;20067;-73
2022/01/11 00:40:54;;;;;;;2.60;2.50;;;;;;;-1.06;100.00;102654.44;4416754;32;20134;-72
2022/01/11 00:43:21;;;;;;;2.30;2.20;;;;;;;-2.08;100.00;102494.53;4424267;32;20697;-73
2022/01/11 00:45:47;;;;;;;2.35;2.25;;;;;;;-0.93;100.00;102653.06;4422847;32;20090;-71
2022/01/11 00:48:12;;;;;;;2.20;2.10;;;;;;;-0.93;100.00;102642.75;4423276;32;20108;-74
2022/01/11 00:50:37;;;;;;;4.25;4.05;;;;;;;-1.04;100.00;102632.16;4424498;32;20562;-73
2022/01/11 00:53:03;;;;;;;2.45;2.35;;;;;;;-0.97;100.00;102659.81;4429555;32;20152;-72
2022/01/11 00:55:29;;;;;;;3.95;3.78;;;;;;;-1.04;100.00;102648.47;4425081;32;20285;-73
2022/01/11 00:57:54;;;;;;;2.58;2.40;;;;;;;-0.95;100.00;102650.44;4430543;32;20288;-72
2022/01/11 01:00:20;;;;;;;2.15;2.05;;;;;;;-1.80;100.00;102523.62;4432987;32;20075;-73
2022/01/11 01:02:45;;;;;;;2.30;2.20;;;;;;;-1.02;100.00;102657.13;4429147;32;20060;-72
2022/01/11 01:05:10;;;;;;;2.40;2.30;;;;;;;-0.98;100.00;102662.34;4421422;32;20072;-74
2022/01/11 01:07:36;;;;;;;3.60;3.50;;;;;;;-1.41;100.00;102595.94;4423868;32;20099;-71
2022/01/11 01:10:04;;;;;;;2.20;2.10;;;;;;;-1.77;100.00;102540.84;4435079;32;20700;-72
2022/01/11 01:12:29;;;;;;;4.15;3.95;;;;;;;-0.95;100.00;102671.03;4424213;32;20067;-72
2022/01/11 01:14:55;;;;;;;2.70;2.50;;;;;;;-0.99;100.00;102674.37;4441650;31;20746;-74
2022/01/11 01:17:20;;;;;;;2.20;2.10;;;;;;;-0.95;100.00;102672.75;4411484;32;20065;-74
2022/01/11 01:19:46;;;;;;;2.40;2.30;;;;;;;-1.24;100.00;102632.47;4424400;32;20063;-73
2022/01/11 01:22:11;;;;;;;2.25;2.15;;;;;;;-0.92;100.00;102675.41;4441350;32;20056;-72
2022/01/11 01:24:36;;;;;;;4.05;3.85;;;;;;;-0.92;100.00;102677.97;4433179;32;20663;-71
2022/01/11 01:27:02;;;;;;;2.10;2.00;;;;;;;-0.93;100.00;102689.12;4418090;32;20648;-72
2022/01/11 01:29:27;;;;;;;3.78;3.65;;;;;;;-0.92;100.00;102684.03;4421844;32;20076;-73
2022/01/11 01:31:52;;;;;;;3.03;2.85;;;;;;;-0.90;100.00;102687.53;4418971;32;20091;-72
2022/01/11 01:34:18;;;;;;;2.42;2.33;;;;;;;-0.87;100.00;102702.19;4430097;32;20056;-74
2022/01/11 01:36:43;;;;;;;2.28;2.17;;;;;;;-0.90;100.00;102700.41;4436640;32;20083;-74
2022/01/11 01:39:08;;;;;;;2.30;2.20;;;;;;;-0.89;100.00;102701.28;4422459;32;20078;-73
2022/01/11 01:41:34;;;;;;;3.58;3.47;;;;;;;-0.93;100.00;102696.88;4418904;32;20622;-74
2022/01/11 01:44:01;;;;;;;2.20;2.10;;;;;;;-0.92;100.00;102698.59;4415238;32;20087;-73
2022/01/11 01:46:27;;;;;;;3.78;3.65;;;;;;;-0.89;100.00;102704.72;4432875;32;20080;-72
2022/01/11 01:48:55;;;;;;;2.33;2.22;;;;;;;-0.87;100.00;102705.63;4424534;32;20060;-72
2022/01/11 01:51:20;;;;;;;2.10;2.00;;;;;;;-0.92;100.00;102702.06;4424885;32;20619;-72
2022/01/11 01:53:48;;;;;;;2.20;2.10;;;;;;;-2.00;100.00;102515.34;4438322;32;20067;-72
2022/01/11 01:56:13;;;;;;;2.30;2.20;;;;;;;-0.92;100.00;102717.53;4424509;32;20570;-75
2022/01/11 01:58:39;;;;;;;4.93;4.60;;;;;;;-1.04;100.00;102697.44;4428135;32;20064;-72
2022/01/11 02:01:05;;;;;;;2.20;2.10;;;;;;;-0.92;100.00;102716.62;4422820;32;20079;-74
2022/01/11 02:03:37;;;;;;;4.43;4.20;;;;;;;-0.85;100.00;102728.88;4422769;32;20068;-73
2022/01/11 02:06:02;;;;;;;2.35;2.25;;;;;;;-0.86;100.00;102733.16;4429813;32;20084;-74
2022/01/11 02:08:27;;;;;;;3.72;3.60;;;;;;;-0.91;100.00;102727.00;4418107;32;20099;-73
2022/01/11 02:10:53;;;;;;;2.53;2.42;;;;;;;-0.90;100.00;102723.59;4427354;32;20085;-71
2022/01/11 02:13:18;;;;;;;2.35;2.25;;;;;;;-2.03;100.00;102543.53;4423407;32;20664;-75
2022/01/11 02:15:44;;;;;;;2.60;2.50;;;;;;;-0.97;100.00;102731.13;4428770;32;20087;-73
2022/01/11 02:18:18;;;;;;;2.30;2.20;;;;;;;-0.94;100.00;102734.66;4426047;32;20079;-73
2022/01/11 02:20:44;;;;;;;2.40;2.30;;;;;;;-0.98;100.00;102731.94;4432777;32;20652;-71
2022/01/11 02:23:10;;;;;;;2.40;2.30;;;;;;;-1.08;100.00;102723.97;4439345;32;20079;-71
2022/01/11 02:25:36;;;;;;;3.75;3.65;;;;;;;-0.97;100.00;102744.87;4425192;32;20080;-73
2022/01/11 02:28:02;;;;;;;2.30;2.20;;;;;;;-0.89;100.00;102745.94;4425621;32;20060;-72
2022/01/11 02:30:31;;;;;;;3.78;3.58;;;;;;;-1.01;100.00;102743.91;4431636;32;20300;-75
2022/01/11 02:32:57;;;;;;;2.50;2.40;;;;;;;-0.96;100.00;102751.78;4423005;32;20961;-72
2022/01/11 02:35:22;;;;;;;2.53;2.42;;;;;;;-0.97;100.00;102747.44;4426793;32;20071;-72
2022/01/11 02:37:47;;;;;;;2.45;2.35;;;;;;;-0.95;100.00;102756.09;4421126;32;20069;-73
2022/01/11 02:40:13;;;;;;;2.60;2.50;;;;;;;-0.95;100.00;102755.22;4423632;32;20065;-73
2022/01/11 02:42:38;;;;;;;3.37;3.28;;;;;;;-0.91;100.00;102760.50;4433462;32;20613;-70
2022/01/11 02:45:13;;;;;;;2.50;2.40;;;;;;;-0.87;100.00;102752.03;4424814;31;20576;-74
2022/01/11 02:47:39;;;;;;;3.45;3.35;;;;;;;-0.97;100.00;102749.16;4428131;32;20076;-72
2022/01/11 02:50:04;;;;;;;2.30;2.20;;;;;;;-0.96;100.00;102749.22;4425241;32;20082;-74
2022/01/11 02:52:30;;;;;;;4.28;4.07;;;;;;;-1.08;100.00;102744.56;4425983;32;20570;-71
2022/01/11 02:54:55;;;;;;;6.15;2.85;;;;;;;-1.21;100.00;102714.97;4427354;32;20069;-72
2022/01/11 02:57:20;;;;;;;2.42;2.33;;;;;;;-1.01;100.00;102743.03;4417811;32;20566;-74
2022/01/11 02:59:46;;;;;;;2.60;2.50;;;;;;;-1.08;100.00;102743.69;4427122;32;20068;-72
2022/01/11 03:02:11;;;;;;;2.28;2.17;;;;;;;-1.01;100.00;102748.19;4422023;32;20064;-72
2022/01/11 03:04:36;;;;;;;4.05;3.85;;;;;;;-1.04;100.00;102742.97;4423912;32;20072;-74
2022/01/11 03:07:02;;;;;;;2.40;2.30;;;;;;;-1.14;100.00;102741.81;4424905;32;20151;-71
2022/01/11 03:09:33;;;;;;;3.60;3.50;;;;;;;-1.04;100.00;102741.25;4424377;32;20514;-74
2022/01/11 03:11:58;;;;;;;2.55;2.45;;;;;;;-1.04;100.00;102745.53;4426845;32;20071;-73
2022/01/11 03:14:24;;;;;;;3.12;3.03;;;;;;;-1.05;100.00;102738.63;4433451;32;20067;-72
2022/01/11 03:16:49;;;;;;;2.25;2.15;;;;;;;-1.15;100.00;102723.72;4421901;32;20064;-72
2022/01/11 03:19:14;;;;;;;2.30;2.20;;;;;;;-1.23;100.00;102711.50;4429186;32;20589;-74
2022/01/11 03:21:40;;;;;;;2.20;2.10;;;;;;;-0.99;100.00;102753.38;4424166;32;20225;-75
2022/01/11 03:24:05;;;;;;;2.17;2.08;;;;;;;-1.32;100.00;102705.19;4430134;32;20076;-74
2022/01/11 03:26:30;;;;;;;3.65;3.55;;;;;;;-1.19;100.00;102727.06;4420526;32;20687;-73
2022/01/11 03:28:56;;;;;;;2.55;2.45;;;;;;;-1.07;100.00;102761.75;4424492;32;20324;-74
2022/01/11 03:31:23;;;;;;;2.30;2.20;;;;;;;-1.07;100.00;102764.34;4423937;32;20064;-72
2022/01/11 03:33:49;;;;;;;2.10;2.00;;;;;;;-1.05;100.00;102766.97;4425366;32;20072;-73
2022/01/11 03:36:14;;;;;;;2.50;2.40;;;;;;;-1.06;100.00;102770.38;4428275;32;20091;-74
2022/01/11 03:38:40;;;;;;;2.92;2.83;;;;;;;-1.23;100.00;102757.84;4425515;32;20087;-73
2022/01/11 03:41:05;;;;;;;2.20;2.10;;;;;;;-0.98;100.00;102779.22;4424606;32;20321;-72
2022/01/11 03:43:30;;;;;;;3.55;3.45;;;;;;;-0.96;100.00;102777.56;4419704;32;20087;-74
2022/01/11 03:45:57;;;;;;;2.40;2.30;;;;;;;-1.04;100.00;102774.75;4424432;32;20068;-73
2022/01/11 03:48:22;;;;;;;2.90;2.80;;;;;;;-1.09;100.00;102767.72;4423468;32;20087;-74
2022/01/11 03:50:52;;;;;;;3.40;2.97;;;;;;;-2.21;100.00;102596.16;4437980;32;20086;-73
2022/01/11 03:53:19;;;;;;;2.40;2.30;;;;;;;-1.11;100.00;102777.09;4426011;32;20103;-73
2022/01/11 03:55:58;;;;;;;2.17;2.08;;;;;;;-1.10;100.00;102782.31;4428237;32;20070;-73
2022/01/11 03:58:26;;;;;;;2.67;2.58;;;;;;;-1.15;100.00;102781.28;4424467;32;20067;-73
2022/01/11 04:00:51;;;;;;;2.40;2.30;;;;;;;-1.15;100.00;102791.59;4423499;32;21455;-74
2022/01/11 04:03:17;;;;;;;2.20;2.10;;;;;;;-1.24;100.00;102788.75;4427766;32;20079;-73
2022/01/11 04:05:43;;;;;;;6.97;2.90;;;;;;;-1.13;100.00;102792.50;4439872;32;20263;-74
2022/01/11 04:08:09;;;;;;;2.20;2.10;;;;;;;-1.17;100.00;102789.81;4426469;32;20075;-72
2022/01/11 04:10:35;;;;;;;4.10;3.90;;;;;;;-1.13;100.00;102800.22;4425801;32;20642;-72
2022/01/11 04:13:00;;;;;;;3.00;2.80;;;;;;;-1.15;100.00;102795.87;4426889;32;20065;-72
2022/01/11 04:15:25;;;;;;;3.53;3.42;;;;;;;-1.19;100.00;102794.03;4428692;32;20132;-71
2022/01/11 04:17:51;;;;;;;2.10;2.00;;;;;;;-1.68;100.00;102721.31;4432156;32;20852;-73
2022/01/11 04:20:19;;;;;;;2.65;2.55;;;;;;;-1.14;100.00;102795.03;4429657;32;20075;-73
2022/01/11 04:22:46;;;;;;;2.20;2.10;;;;;;;-1.14;100.00;102801.06;4438067;32;20119;-72
2022/01/11 04:25:11;;;;;;;2.40;2.30;;;;;;;-1.14;100.00;102795.91;4425628;32;20060;-73
2022/01/11 04:27:37;;;;;;;3.80;3.65;;;;;;;-1.14;100.00;102782.16;4442228;32;20157;-73
2022/01/11 04:30:02;;;;;;;2.30;2.20;;;;;;;-1.14;100.00;102793.34;4426394;32;20076;-72
2022/01/11 04:32:28;;;;;;;3.83;3.67;;;;;;;-1.16;100.00;102781.22;4426399;32;20167;-72
2022/01/11 04:34:54;;;;;;;2.20;2.10;;;;;;;-1.11;100.00;102783.13;4441063;32;20893;-73
2022/01/11 04:37:19;;;;;;;2.10;2.00;;;;;;;-2.39;100.00;102631.59;4421997;32;20080;-75
2022/01/11 04:39:44;;;;;;;2.87;2.78;;;;;;;-1.13;100.00;102795.06;4439280;32;20156;-72
2022/01/11 04:42:10;;;;;;;2.80;2.70;;;;;;;-1.91;100.00;102651.09;4426048;32;20490;-75
2022/01/11 04:44:35;;;;;;;3.40;3.30;;;;;;;-1.08;100.00;102785.78;4428137;32;20079;-72
2022/01/11 04:47:01;;;;;;;2.50;2.40;;;;;;;-1.02;100.00;102787.69;4426234;32;20822;-72
2022/01/11 04:49:26;;;;;;;3.67;3.58;;;;;;;-1.10;100.00;102776.25;4424254;32;20451;-73
2022/01/11 04:51:53;;;;;;;2.80;2.70;;;;;;;-1.08;100.00;102798.69;4428241;32;20636;-72
2022/01/11 04:54:19;;;;;;;2.33;2.22;;;;;;;-2.69;100.00;102521.81;4434317;32;20056;-75
2022/01/11 04:56:44;;;;;;;2.50;2.40;;;;;;;-1.08;100.00;102780.66;4424411;32;20299;-74
2022/01/11 04:59:10;;;;;;;2.10;2.00;;;;;;;-1.13;100.00;102789.94;4426424;32;20600;-72
2022/01/11 05:01:35;;;;;;;4.25;4.05;;;;;;;-1.14;100.00;102800.19;4420762;32;20418;-74
2022/01/11 05:04:00;;;;;;;2.60;2.50;;;;;;;-1.76;100.00;102704.72;4442104;32;20129;-71
2022/01/11 05:06:26;;;;;;;3.72;3.62;;;;;;;-1.22;100.00;102792.25;4424352;32;20636;-72
2022/01/11 05:08:51;;;;;;;2.20;2.10;;;;;;;-1.15;100.00;102798.44;4424880;32;20075;-74
2022/01/11 05:11:17;;;;;;;2.20;2.10;;;;;;;-1.10;100.00;102810.66;4421294;32;20064;-73
2022/01/11 05:13:42;;;;;;;5.03;3.00;;;;;;;-1.27;100.00;102784.34;4436216;32;20079;-72
2022/01/11 05:16:09;;;;;;;2.25;2.15;;;;;;;-1.35;100.00;102783.25;4430810;32;20079;-73
2022/01/11 05:18:36;;;;;;;4.07;3.87;;;;;;;-1.16;100.00;102804.41;4423869;32;20059;-72
2022/01/11 05:21:01;;;;;;;3.03;2.85;;;;;;;-1.13;100.00;102804.53;4428131;32;20064;-72
2022/01/11 05:23:27;;;;;;;3.53;3.42;;;;;;;-1.12;100.00;102814.88;4423011;32;20637;-73
2022/01/11 05:25:52;;;;;;;2.60;2.50;;;;;;;-2.39;100.00;102599.87;4419038;32;20665;-74
2022/01/11 05:28:17;;;;;;;2.60;2.50;;;;;;;-1.14;100.00;102813.06;4427388;32;20140;-74
2022/01/11 05:30:43;;;;;;;2.05;1.95;;;;;;;-1.13;100.00;102814.81;4438819;32;20072;-74
2022/01/11 05:33:08;;;;;;;2.50;2.40;;;;;;;-1.16;100.00;102818.19;4424337;32;20149;-74
2022/01/11 05:35:33;;;;;;;9.98;4.25;;;;;;;-1.13;100.00;102818.25;4423838;32;20182;-74
2022/01/11 05:37:59;;;;;;;3.45;3.25;;;;;;;-1.14;100.00;102820.78;4427155;32;20107;-71
2022/01/11 05:40:24;;;;;;;3.03;2.92;;;;;;;-1.27;100.00;102807.53;4426067;32;20120;-73
2022/01/11 05:42:50;;;;;;;2.20;2.10;;;;;;;-1.30;100.00;102819.47;4429839;32;20502;-71
2022/01/11 05:45:15;;;;;;;2.37;2.28;;;;;;;-1.27;100.00;102820.41;4428824;32;20083;-72
2022/01/11 05:47:41;;;;;;;2.33;2.22;;;;;;;-1.23;100.00;102822.25;4424882;32;20103;-73
2022/01/11 05:50:08;;;;;;;2.30;2.20;;;;;;;-1.26;100.00;102819.59;4436471;32;20079;-73
2022/01/11 05:52:34;;;;;;;4.15;3.95;;;;;;;-1.30;100.00;102809.16;4427960;32;20666;-73
2022/01/11 05:55:00;;;;;;;2.60;2.50;;;;;;;-1.27;100.00;102815.25;4422934;32;20080;-73
2022/01/11 05:57:26;;;;;;;4.00;3.83;;;;;;;-1.24;100.00;102822.25;4422936;32;20132;-73
2022/01/11 05:59:51;;;;;;;2.15;2.05;;;;;;;-1.27;100.00;102819.56;4428624;32;20578;-75
2022/01/11 06:02:16;;;;;;;2.40;2.30;;;;;;;-1.25;100.00;102821.34;4423110;32;20071;-73
2022/01/11 06:04:42;;;;;;;2.53;2.42;;;;;;;-1.19;100.00;102827.53;4428788;32;20597;-76
2022/01/11 06:07:07;;;;;;;2.45;2.35;;;;;;;-1.50;100.00;102790.53;4423119;32;20083;-72
2022/01/11 06:09:32;;;;;;;2.20;2.10;;;;;;;-1.26;100.00;102824.75;4423413;32;20072;-73
2022/01/11 06:11:58;;;;;;;2.60;2.40;;;;;;;-1.65;100.00;102758.28;4426075;32;20456;-74
2022/01/11 06:14:23;;;;;;;3.28;3.17;;;;;;;-1.55;100.00;102789.50;4427324;32;20671;-74
2022/01/11 06:16:49;;;;;;;2.50;2.40;;;;;;;-1.31;100.00;102834.03;4441778;31;20067;-72
2022/01/11 06:19:14;;;;;;;2.22;2.12;;;;;;;-1.63;100.00;102791.81;4426075;32;20247;-72
2022/01/11 06:21:39;;;;;;;3.08;2.97;;;;;;;-1.29;100.00;102837.53;4428736;32;20901;-74
2022/01/11 06:24:05;;;;;;;2.10;2.00;;;;;;;-1.30;100.00;102846.09;4425416;32;20064;-73
2022/01/11 06:26:30;;;;;;;4.25;4.05;;;;;;;-1.37;100.00;102845.84;4423742;32;20517;-74
2022/01/11 06:28:56;;;;;;;2.00;1.90;;;;;;;-1.44;100.00;102842.22;4426884;32;20492;-74
2022/01/11 06:31:25;;;;;;;2.97;2.87;;;;;;;-1.42;100.00;102843.13;4421963;32;20115;-75
2022/01/11 06:33:50;;;;;;;2.22;2.12;;;;;;;-1.46;100.00;102843.87;4429583;32;20202;-72
2022/01/11 06:36:15;;;;;;;2.12;2.03;;;;;;;-1.50;100.00;102839.44;4422845;32;20068;-71
2022/01/11 06:38:42;;;;;;;2.35;2.25;;;;;;;-1.51;100.00;102845.41;4425040;32;20120;-74
2022/01/11 06:41:07;;;;;;;2.30;2.20;;;;;;;-1.52;100.00;102846.25;4426382;32;20194;-71
2022/01/11 06:43:33;;;;;;;3.78;3.65;;;;;;;-1.46;100.00;102851.59;4426048;32;20110;-74
2022/01/11 06:45:58;;;;;;;2.35;2.25;;;;;;;-1.50;100.00;102857.47;4429538;32;20087;-75
2022/01/11 06:48:24;;;;;;;3.53;3.42;;;;;;;-2.55;100.00;102691.03;4425744;32;20064;-72
2022/01/11 06:50:49;;;;;;;2.50;2.40;;;;;;;-1.70;100.00;102839.66;4427449;32;20111;-75
2022/01/11 06:53:14;;;;;;;2.08;1.98;;;;;;;-1.62;100.00;102856.22;4429413;32;20078;-73
2022/01/11 06:55:40;;;;;;;3.00;2.90;;;;;;;-1.59;100.00;102858.03;4425653;32;20200;-74
2022/01/11 06:58:05;;;;;;;2.20;2.10;;;;;;;-1.59;100.00;102865.75;4429328;32;20681;-74
2022/01/11 07:00:30;;;;;;;3.83;3.67;;;;;;;-1.64;100.00;102859.59;4424207;32;20072;-72
2022/01/11 07:02:56;;;;;;;2.75;2.55;;;;;;;-1.74;100.00;102842.97;4425580;32;20860;-74
2022/01/11 07:05:21;;;;;;;2.30;2.20;;;;;;;-1.59;100.00;102867.47;4426635;32;20082;-74
2022/01/11 07:07:47;;;;;;;3.35;3.15;;;;;;;-1.63;100.00;102869.06;4425806;32;20076;-74
2022/01/11 07:10:12;;;;;;;2.60;2.50;;;;;;;-1.58;100.00;102876.91;4425985;32;20819;-74
2022/01/11 07:12:37;;;;;;;3.45;3.35;;;;;;;-1.57;100.00;102874.41;4422796;32;20430;-73
2022/01/11 07:15:03;;;;;;;2.30;2.20;;;;;;;-1.56;100.00;102873.59;4423252;32;20078;-73
2022/01/11 07:17:28;;;;;;;3.78;3.65;;;;;;;-1.50;100.00;102878.06;4419758;32;20056;-74
2022/01/11 07:19:54;;;;;;;2.12;2.03;;;;;;;-1.47;100.00;102880.72;4422506;32;20668;-73
2022/01/11 07:22:19;;;;;;;2.50;2.40;;;;;;;-2.32;100.00;102756.09;4423551;32;20088;-76
2022/01/11 07:24:45;;;;;;;2.20;2.10;;;;;;;-1.58;100.00;102882.97;4425066;32;20259;-73
2022/01/11 07:27:10;;;;;;;2.30;2.20;;;;;;;-1.55;100.00;102892.47;4422560;32;20094;-74
2022/01/11 07:29:35;;;;;;;3.47;3.37;;;;;;;-1.66;100.00;102890.44;4417100;32;20209;-74
2022/01/11 07:32:01;;;;;;;2.22;2.12;;;;;;;-1.70;100.00;102893.72;4423445;32;20068;-72
2022/01/11 07:34:26;;;;;;;3.85;3.70;;;;;;;-1.76;100.00;102885.78;4427064;32;20605;-73
2022/01/11 07:36:52;;;;;;;2.20;2.10;;;;;;;-1.74;100.00;102896.16;4424148;32;20141;-75
2022/01/11 07:39:17;;;;;;;2.15;2.05;;;;;;;-1.70;100.00;102898.88;4429021;32;20076;-73
2022/01/11 07:41:42;;;;;;;2.20;2.10;;;;;;;-1.67;100.00;102903.25;4424983;32;20082;-74
2022/01/11 07:44:08;;;;;;;2.40;2.30;;;;;;;-1.59;100.00;102912.09;4430258;32;20072;-73
2022/01/11 07:46:34;;;;;;;3.55;3.45;;;;;;;-1.55;100.00;102905.34;4426505;32;20095;-74
2022/01/11 07:48:59;;;;;;;2.50;2.40;;;;;;;-1.87;100.00;102851.09;4429477;32;20078;-71
2022/01/11 07:51:25;;;;;;;3.40;3.30;;;;;;;-1.62;100.00;102900.00;4423668;32;20075;-74
2022/01/11 07:53:52;;;;;;;3.03;2.92;;;;;;;-1.57;100.00;102919.88;4434722;32;21051;-75
2022/01/11 07:56:18;;;;;;;2.30;2.20;;;;;;;-1.56;100.00;102926.75;4427291;32;20083;-72
2022/01/11 07:58:43;;;;;;;2.33;2.22;;;;;;;-1.54;100.00;102910.56;4421165;32;20167;-73
2022/01/11 08:01:09;;;;;;;2.40;2.30;;;;;;;-1.51;100.00;102917.50;4422050;32;20681;-72
2022/01/11 08:03:34;;;;;;;3.60;3.50;;;;;;;-1.62;100.00;102899.12;4419925;32;20084;-72
2022/01/11 08:05:59;;;;;;;3.25;3.05;;;;;;;-1.47;100.00;102919.34;4425491;32;20086;-73
2022/01/11 08:08:25;;;;;;;2.40;2.30;;;;;;;-1.50;100.00;102912.41;4418123;32;20067;-73
2022/01/11 08:10:50;;;;;;;2.40;2.30;;;;;;;-2.93;100.00;102673.47;4440229;32;20558;-72
2022/01/11 08:13:16;;;;;;;2.33;2.22;;;;;;;-1.56;100.00;102921.63;4420455;32;20082;-73
2022/01/11 08:15:41;;;;;;;2.60;2.50;;;;;;;-1.52;100.00;102918.34;4438845;32;20123;-73
2022/01/11 08:18:08;;;;;;;2.30;2.20;;;;;;;-1.45;100.00;102923.72;4435948;32;20098;-71
2022/01/11 08:20:34;;;;;;;2.50;2.37;;;;;;;-1.78;100.00;102864.28;4427112;32;20081;-72
2022/01/11 08:22:59;;;;;;;4.97;3.20;;;;;;;-1.40;100.00;102926.47;4424177;32;20095;-74
2022/01/11 08:25:25;;;;;;;3.65;3.55;;;;;;;-1.30;100.00;102932.81;4419494;32;20090;-72
2022/01/11 08:27:50;;;;;;;2.30;2.20;;;;;;;-1.27;100.00;102938.03;4424127;32;20083;-74
2022/01/11 08:30:16;;;;;;;2.50;2.40;;;;;;;-1.25;100.00;102936.41;4431036;32;20609;-74
2022/01/11 08:32:41;;;;;;;2.72;2.62;;;;;;;-1.27;100.00;102935.47;4424111;32;20181;-76
2022/01/11 08:35:07;;;;;;;3.20;3.10;;;;;;;-1.21;100.00;102939.13;4436762;32;20080;-74
2022/01/11 08:37:32;;;;;;;4.35;4.15;;;;;;;-1.48;100.00;102876.41;4426863;32;20178;-74
2022/01/11 08:39:58;;;;;;;2.42;2.33;;;;;;;-1.07;100.00;102942.13;4426866;32;20111;-74
2022/01/11 08:42:25;;;;;;;3.47;3.33;;;;;;;-1.07;100.00;102943.84;4415059;32;20060;-73
2022/01/11 08:44:50;;;;;;;2.40;2.30;;;;;;;-1.14;100.00;102954.75;4438908;32;20110;-72
2022/01/11 08:47:16;;;;;;;2.25;2.15;;;;;;;-1.18;100.00;102963.22;4420464;32;20602;-73
2022/01/11 08:49:42;;;;;;;2.20;2.10;;;;;;;-1.15;100.00;102960.75;4421018;32;20356;-73
2022/01/11 08:52:07;;;;;;;3.25;3.05;;;;;;;-1.11;100.00;102958.31;4426501;32;20459;-73
2022/01/11 08:54:32;;;;;;;3.78;3.65;;;;;;;-1.72;100.00;102879.06;4418816;32;20159;-73
2022/01/11 08:56:58;;;;;;;2.33;2.22;;;;;;;-1.24;100.00;102967.38;4437467;32;20083;-70
2022/01/11 08:59:25;;;;;;;2.67;2.58;;;;;;;-1.22;100.00;102955.41;4420375;32;20087;-74
2022/01/11 09:01:50;;;;;;;2.40;2.30;;;;;;;-1.14;100.00;102959.91;4436179;32;20105;-75
2022/01/11 09:04:16;;;;;;;3.97;2.78;;;;;;;-1.14;100.00;102967.66;4425963;32;20645;-71
2022/01/11 09:06:42;;;;;;;3.08;2.97;;;;;;;-1.08;100.00;102967.88;4420539;32;20156;-72
2022/01/11 09:09:07;;;;;;;2.60;2.50;;;;;;;-1.02;100.00;102955.19;4422683;32;20077;-74
2022/01/11 09:11:33;;;;;;;4.12;3.92;;;;;;;-0.86;100.00;102964.28;4420228;32;20068;-73
2022/01/11 09:13:58;;;;;;;2.35;2.25;;;;;;;-1.97;100.00;102776.97;4424570;32;20068;-72
2022/01/11 09:16:24;;;;;;;2.60;2.50;;;;;;;-0.98;100.00;102962.19;4427054;32;20595;-76
2022/01/11 09:18:50;;;;;;;3.20;2.83;;;;;;;-0.85;100.00;102966.91;4429589;32;20085;-73
2022/01/11 09:21:16;;;;;;;2.72;2.62;;;;;;;-1.01;100.00;102946.62;4424198;32;20067;-75
2022/01/11 09:23:41;;;;;;;2.40;2.30;;;;;;;-0.91;100.00;102963.25;4419269;32;20490;-74
2022/01/11 09:26:07;;;;;;;2.50;2.40;;;;;;;-1.56;100.00;102854.66;4410214;32;20347;-73
2022/01/11 09:28:32;;;;;;;2.47;2.37;;;;;;;-0.93;100.00;102970.06;4405291;32;20468;-74
2022/01/11 09:30:57;;;;;;;3.35;3.25;;;;;;;-0.84;100.00;102968.66;4407335;32;20593;-73
2022/01/11 09:33:23;;;;;;;3.75;3.28;;;;;;;-0.74;100.00;102972.41;4414839;32;20183;-71
2022/01/11 09:35:48;;;;;;;2.50;2.40;;;;;;;-0.61;100.00;102974.50;4410919;32;20077;-71
2022/01/11 09:38:14;;;;;;;2.37;2.28;;;;;;;-0.57;100.00;102972.91;4411450;32;20138;-76
2022/01/11 09:40:39;;;;;;;2.87;2.78;;;;;;;-0.83;100.00;102970.41;4406367;32;20087;-71
2022/01/11 09:43:04;;;;;;;2.37;2.28;;;;;;;-0.56;100.00;102966.94;4410485;32;20068;-73
2022/01/11 09:45:30;;;;;;;3.97;3.80;;;;;;;-0.45;100.00;102970.69;4409877;32;20083;-73
2022/01/11 09:47:55;;;;;;;2.50;2.40;;;;;;;-0.49;100.00;103040.22;4415714;32;20510;-77
2022/01/11 09:50:21;;;;;;;2.70;2.60;;;;;;;-1.15;100.00;102830.22;4410651;32;20072;-74
2022/01/11 09:52:46;;;;;;;2.95;2.85;;;;;;;-0.19;100.00;102973.19;4409829;32;20708;-71
2022/01/11 09:55:12;;;;;;;2.33;2.22;;;;;;;-0.17;100.00;102960.34;4416368;32;20075;-72
2022/01/11 09:57:38;;;;;;;3.90;3.72;;;;;;;0.01;100.00;102967.72;4402369;32;20086;-72
2022/01/11 10:00:05;;;;;;;3.22;3.03;;;;;;;-0.07;100.00;102963.19;4425418;32;20076;-73
2022/01/11 10:02:30;;;;;;;4.10;3.90;;;;;;;-0.10;100.00;102973.47;4420704;32;20092;-72
2022/01/11 10:04:58;;;;;;;2.40;2.30;;;;;;;0.07;100.00;102978.22;4409319;32;20085;-73
2022/01/11 10:07:30;;;;;;;3.78;3.62;;;;;;;0.12;100.00;102961.13;4413753;32;20087;-72
2022/01/11 10:09:56;;;;;;;;;;;;;;;0.19;100.00;102974.25;4424182;32;20311;-74
2022/01/11 10:12:22;;;;;;;2.62;2.53;;;;;;;0.33;100.00;102974.63;4422141;32;20308;-71
2022/01/11 10:14:51;;;;;;;2.40;2.30;;;;;;;0.43;100.00;102968.00;4414964;32;20614;-72
2022/01/11 10:17:20;;;;;;;2.60;2.50;;;;;;;0.21;100.00;102963.09;4423024;32;20057;-73
2022/01/11 10:19:51;;;;;;;2.50;2.40;;;;;;;-0.01;100.00;102959.94;4437570;32;20647;-73
2022/01/11 10:22:20;;;;;;;4.70;3.05;;;;;;;-0.13;100.00;102957.88;4407671;32;20083;-75
2022/01/11 10:24:55;;;;;;;2.70;2.60;;;;;;;-0.11;100.00;102957.91;4405903;32;20153;-71
2022/01/11 10:27:24;;;;;;;3.10;3.00;;;;;;;-0.18;100.00;102962.03;4411520;32;20103;-74
2022/01/11 10:29:54;;;;;;;2.90;2.80;;;;;;;-0.19;100.00;102954.25;4407580;32;20092;-71
2022/01/11 10:32:32;;;;;;;2.53;2.42;;;;;;;-0.37;100.00;102916.75;4409688;32;20853;-73
2022/01/11 10:35:05;;;;;;;2.78;2.67;;;;;;;-0.09;100.00;102941.63;4414300;32;20203;-73
2022/01/11 10:37:54;;;;;;;4.35;4.15;;;;;;;-0.08;100.00;102948.56;4409600;32;20553;-72
2022/01/11 10:40:20;;;;;;;2.47;2.37;;;;;;;-1.19;100.00;102768.25;4429525;32;20072;-75
2022/01/11 10:42:56;;;;;;;2.67;2.53;;;;;;;0.09;100.00;102946.44;4420091;32;20079;-72
2022/01/11 10:45:29;;;;;;;2.45;2.35;;;;;;;-0.31;100.00;102869.63;4408027;32;20122;-73
2022/01/11 10:47:58;;;;;;;2.42;2.33;;;;;;;0.25;100.00;102946.88;4427824;32;20086;-73
2022/01/11 10:50:28;;;;;;;14.63;13.82;;;;;;;0.21;100.00;102951.06;4310286;32;20614;-73
2022/01/11 10:52:58;;;;;;;2.70;2.60;;;;;;;0.18;100.00;102950.97;4428373;32;20594;-73
2022/01/11 10:55:25;;;;;;;3.12;3.03;;;;;;;-0.04;100.00;102914.25;4411486;32;20056;-73
2022/01/11 10:57:59;;;;;;;2.67;2.58;;;;;;;0.25;100.00;102962.34;4414519;32;20554;-72
2022/01/11 11:00:32;;;;;;;3.03;2.92;;;;;;;0.18;100.00;102962.19;4415427;32;20180;-71
2022/01/11 11:03:00;;;;;;;2.70;2.60;;;;;;;0.39;100.00;102966.19;4412790;32;20719;-73
2022/01/11 11:05:53;;;;;;;3.92;3.78;;;;;;;0.61;100.00;102975.37;4430920;32;20088;-75
2022/01/11 11:08:18;;;;;;;4.57;4.37;;;;;;;0.86;100.00;102963.06;4420896;32;20095;-71
2022/01/11 11:10:50;;;;;;;2.97;2.87;;;;;;;0.72;100.00;102973.94;4433398;32;20965;-72
2022/01/11 11:13:21;;;;;;;2.50;2.40;;;;;;;0.72;100.00;102971.34;4434294;32;20068;-73
2022/01/11 11:15:49;;;;;;;2.65;2.55;;;;;;;0.74;100.00;102977.44;4437707;32;20064;-74